createdAt,value
2023-10-01T00:00:44.959Z,56.60
2023-10-01T00:05:49.899Z,56.60
2023-10-01T00:10:53.210Z,56.50
2023-10-01T00:15:56.542Z,57.10
2023-10-01T00:21:00.981Z,56.60
2023-10-01T00:26:03.987Z,56.50
2023-10-01T00:31:07.436Z,56.50
2023-10-01T00:36:11.848Z,57.10
2023-10-01T00:41:14.795Z,56.50
2023-10-01T00:46:19.509Z,56.50
2023-10-01T00:51:24.210Z,56.50
2023-10-01T00:56:27.585Z,56.50
2023-10-01T01:01:30.634Z,56.50
2023-10-01T01:06:38.145Z,56.40
2023-10-01T01:11:41.980Z,56.40
2023-10-01T01:16:46.696Z,56.50
2023-10-01T01:21:51.792Z,56.40
2023-10-01T01:27:01.593Z,56.40
2023-10-01T01:32:14.879Z,56.40
2023-10-01T01:37:31.687Z,56.40
2023-10-01T01:42:36.136Z,56.40
2023-10-01T01:47:39.442Z,56.40
2023-10-01T01:52:43.833Z,56.40
2023-10-01T01:58:03.377Z,56.30
2023-10-01T02:03:13.752Z,56.40
2023-10-01T02:08:25.732Z,56.40
2023-10-01T02:13:31.051Z,56.30
2023-10-01T02:18:33.940Z,56.30
2023-10-01T02:23:37.602Z,56.30
2023-10-01T02:28:41.833Z,56.30
2023-10-01T02:33:56.872Z,56.20
2023-10-01T02:38:59.985Z,56.30
2023-10-01T02:44:04.506Z,56.20
2023-10-01T02:49:14.091Z,56.20
2023-10-01T02:54:20.151Z,56.30
2023-10-01T02:59:24.629Z,56.20
2023-10-01T03:04:28.829Z,56.20
2023-10-01T03:09:35.708Z,56.20
2023-10-01T03:14:44.553Z,56.20
2023-10-01T03:19:53.449Z,56.20
2023-10-01T03:24:59.581Z,56.10
2023-10-01T03:30:19.931Z,56.20
2023-10-01T03:35:23.035Z,55.70
2023-10-01T03:40:28.969Z,56.10
2023-10-01T03:45:40.737Z,56.10
2023-10-01T03:50:48.176Z,56.10
2023-10-01T03:55:56.148Z,56.10
2023-10-01T04:01:16.500Z,56.10
2023-10-01T04:06:22.516Z,56.10
2023-10-01T04:11:42.971Z,56.00
2023-10-01T04:16:49.149Z,56.00
2023-10-01T04:21:52.474Z,56.00
2023-10-01T04:26:55.707Z,56.00
2023-10-01T04:32:02.357Z,55.90
2023-10-01T04:37:05.333Z,56.00
2023-10-01T04:42:10.679Z,55.90
2023-10-01T04:47:32.215Z,55.90
2023-10-01T04:52:35.244Z,55.90
2023-10-01T04:57:40.056Z,55.90
2023-10-01T05:02:47.337Z,55.90
2023-10-01T05:07:51.808Z,55.80
2023-10-01T05:12:59.610Z,55.80
2023-10-01T05:18:05.879Z,55.70
2023-10-01T05:23:08.810Z,55.80
2023-10-01T05:28:24.608Z,55.80
2023-10-01T05:33:29.583Z,55.70
2023-10-01T05:38:35.126Z,55.60
2023-10-01T05:43:39.174Z,55.50
2023-10-01T05:48:44.416Z,55.40
2023-10-01T05:53:49.625Z,55.30
2023-10-01T05:58:53.860Z,55.40
2023-10-01T06:04:00.376Z,55.30
2023-10-01T06:09:05.576Z,55.10
2023-10-01T06:14:10.335Z,55.00
2023-10-01T06:19:15.330Z,54.80
2023-10-01T06:24:18.320Z,54.80
2023-10-01T06:29:23.352Z,54.80
2023-10-01T06:34:30.743Z,55.00
2023-10-01T06:39:36.755Z,55.10
2023-10-01T06:44:40.930Z,55.10
2023-10-01T06:49:58.270Z,55.10
2023-10-01T06:55:02.558Z,55.30
2023-10-01T07:00:19.013Z,55.40
2023-10-01T07:05:23.576Z,55.40
2023-10-01T07:10:27.348Z,55.50
2023-10-01T07:15:33.518Z,55.60
2023-10-01T07:20:40.519Z,55.60
2023-10-01T07:25:45.044Z,55.60
2023-10-01T07:30:52.893Z,55.70
2023-10-01T07:36:03.606Z,55.70
2023-10-01T07:41:12.446Z,55.70
2023-10-01T07:46:15.989Z,55.80
2023-10-01T07:51:27.665Z,55.80
2023-10-01T07:56:30.872Z,55.80
2023-10-01T08:01:38.347Z,55.80
2023-10-01T08:06:44.718Z,55.80
2023-10-01T08:12:07.394Z,55.90
2023-10-01T08:17:10.721Z,56.00
2023-10-01T08:22:16.949Z,56.00
2023-10-01T08:27:32.915Z,56.00
2023-10-01T08:32:40.158Z,56.00
2023-10-01T08:37:50.628Z,56.10
2023-10-01T08:42:54.741Z,56.20
2023-10-01T08:48:01.130Z,56.20
2023-10-01T08:53:12.205Z,56.30
2023-10-01T08:58:17.121Z,56.60
2023-10-01T09:03:30.484Z,56.60
2023-10-01T09:08:44.687Z,56.60
2023-10-01T09:13:49.994Z,56.70
2023-10-01T09:19:26.319Z,56.70
2023-10-01T09:24:39.879Z,56.80
2023-10-01T09:29:45.898Z,57.00
2023-10-01T09:34:59.306Z,56.70
2023-10-01T09:40:06.932Z,56.80
2023-10-01T09:45:25.737Z,56.70
2023-10-01T09:50:29.765Z,56.70
2023-10-01T09:55:36.986Z,56.70
2023-10-01T10:00:41.882Z,56.90
2023-10-01T10:05:47.659Z,56.60
2023-10-01T10:10:56.583Z,57.40
2023-10-01T10:16:01.407Z,58.00
2023-10-01T10:21:05.634Z,58.20
2023-10-01T10:26:14.573Z,58.20
2023-10-01T10:31:32.900Z,59.10
2023-10-01T10:36:37.032Z,60.30
2023-10-01T10:42:29.400Z,60.10
2023-10-01T10:48:00.787Z,60.20
2023-10-01T10:53:15.955Z,60.20
2023-10-01T10:58:21.059Z,60.20
2023-10-01T11:03:42.096Z,60.20
2023-10-01T11:08:54.717Z,60.10
2023-10-01T11:14:04.647Z,60.50
2023-10-01T11:19:17.964Z,60.40
2023-10-01T11:24:22.761Z,60.40
2023-10-01T11:29:25.694Z,60.50
2023-10-01T11:34:44.631Z,60.30
2023-10-01T11:39:53.638Z,61.10
2023-10-01T11:44:56.749Z,60.60
2023-10-01T11:50:10.323Z,60.60
2023-10-01T11:55:21.323Z,60.40
2023-10-01T12:00:53.599Z,60.60
2023-10-01T12:05:58.475Z,60.70
2023-10-01T12:11:21.390Z,60.60
2023-10-01T12:16:30.979Z,60.30
2023-10-01T12:21:35.467Z,59.90
2023-10-01T12:26:39.921Z,60.40
2023-10-01T12:31:45.865Z,60.50
2023-10-01T12:36:52.393Z,60.60
2023-10-01T12:41:58.745Z,60.90
2023-10-01T12:47:03.650Z,61.10
2023-10-01T12:52:10.228Z,61.00
2023-10-01T12:57:14.568Z,60.80
2023-10-01T13:02:30.229Z,61.00
2023-10-01T13:07:37.344Z,61.00
2023-10-01T13:12:54.843Z,61.00
2023-10-01T13:18:02.747Z,60.90
2023-10-01T13:23:08.891Z,61.00
2023-10-01T13:28:19.139Z,61.70
2023-10-01T13:33:24.387Z,60.80
2023-10-01T13:38:56.888Z,61.00
2023-10-01T13:44:17.459Z,60.70
2023-10-01T13:49:37.838Z,60.50
2023-10-01T13:54:59.550Z,60.10
2023-10-01T14:00:19.881Z,60.00
2023-10-01T14:05:40.256Z,61.30
2023-10-01T14:10:51.568Z,60.20
2023-10-01T14:15:54.517Z,60.10
2023-10-01T14:20:57.421Z,60.00
2023-10-01T14:26:11.281Z,59.90
2023-10-01T14:31:15.563Z,59.80
2023-10-01T14:36:21.518Z,59.70
2023-10-01T14:41:30.095Z,59.70
2023-10-01T14:46:35.148Z,59.50
2023-10-01T14:51:49.243Z,59.40
2023-10-01T14:56:57.453Z,59.60
2023-10-01T15:02:01.205Z,59.50
2023-10-01T15:07:06.897Z,59.40
2023-10-01T15:12:37.940Z,59.50
2023-10-01T15:17:47.536Z,59.70
2023-10-01T15:22:50.600Z,59.70
2023-10-01T15:27:55.185Z,59.60
2023-10-01T15:33:01.781Z,59.80
2023-10-01T15:38:05.437Z,59.80
2023-10-01T15:43:09.702Z,60.20
2023-10-01T15:48:16.688Z,60.40
2023-10-01T15:53:19.973Z,60.20
2023-10-01T15:58:26.328Z,60.20
2023-10-01T16:03:32.364Z,59.90
2023-10-01T16:08:36.980Z,59.50
2023-10-01T16:13:41.314Z,59.20
2023-10-01T16:18:48.367Z,59.20
2023-10-01T16:23:53.698Z,59.30
2023-10-01T16:29:00.109Z,59.30
2023-10-01T16:34:04.084Z,59.90
2023-10-01T16:39:14.185Z,59.80
2023-10-01T16:44:18.540Z,59.80
2023-10-01T16:49:21.939Z,59.80
2023-10-01T16:54:28.637Z,59.90
2023-10-01T16:59:33.367Z,59.80
2023-10-01T17:04:39.627Z,59.80
2023-10-01T17:09:42.506Z,59.90
2023-10-01T17:14:49.047Z,59.90
2023-10-01T17:19:52.283Z,59.80
2023-10-01T17:24:57.850Z,59.80
2023-10-01T17:30:19.183Z,59.80
2023-10-01T17:35:22.101Z,59.70
2023-10-01T17:40:25.806Z,59.60
2023-10-01T17:45:31.272Z,59.60
2023-10-01T17:50:34.796Z,59.50
2023-10-01T17:55:37.976Z,59.50
2023-10-01T18:00:43.373Z,59.50
2023-10-01T18:06:00.213Z,59.40
2023-10-01T18:11:11.929Z,59.30
2023-10-01T18:16:26.681Z,59.30
2023-10-01T18:21:30.170Z,59.30
2023-10-01T18:26:33.347Z,59.30
2023-10-01T18:31:38.280Z,59.30
2023-10-01T18:36:42.096Z,59.30
2023-10-01T18:41:45.799Z,59.30
2023-10-01T18:46:50.163Z,59.30
2023-10-01T18:51:54.211Z,59.30
2023-10-01T18:56:59.303Z,59.30
2023-10-01T19:02:03.664Z,59.20
2023-10-01T19:07:12.115Z,59.30
2023-10-01T19:12:15.449Z,59.10
2023-10-01T19:17:19.795Z,59.20
2023-10-01T19:22:34.676Z,59.20
2023-10-01T19:27:44.724Z,59.20
2023-10-01T19:32:49.366Z,59.20
2023-10-01T19:37:54.815Z,59.20
2023-10-01T19:43:01.067Z,59.20
2023-10-01T19:48:06.495Z,59.10
2023-10-01T19:53:17.096Z,59.10
2023-10-01T19:58:20.068Z,59.10
2023-10-01T20:03:25.251Z,59.10
2023-10-01T20:08:29.203Z,59.10
2023-10-01T20:13:32.633Z,59.10
2023-10-01T20:18:37.076Z,59.00
2023-10-01T20:23:41.721Z,59.00
2023-10-01T20:28:45.149Z,59.10
2023-10-01T20:33:53.742Z,59.10
2023-10-01T20:38:58.654Z,59.20
2023-10-01T20:44:03.440Z,59.20
2023-10-01T20:49:07.989Z,59.10
2023-10-01T20:54:14.831Z,59.20
2023-10-01T20:59:18.334Z,58.90
2023-10-01T21:04:26.112Z,59.10
2023-10-01T21:09:31.420Z,59.10
2023-10-01T21:14:37.911Z,59.20
2023-10-01T21:19:45.103Z,59.70
2023-10-01T21:24:48.297Z,59.20
2023-10-01T21:29:54.984Z,59.10
2023-10-01T21:34:59.989Z,59.10
2023-10-01T21:40:03.984Z,59.10
2023-10-01T21:45:40.917Z,59.00
2023-10-01T21:50:46.583Z,59.10
2023-10-01T21:55:49.620Z,59.10
2023-10-01T22:01:24.974Z,59.00
2023-10-01T22:06:30.906Z,59.00
2023-10-01T22:11:35.167Z,59.00
2023-10-01T22:16:44.945Z,59.00
2023-10-01T22:21:51.329Z,59.00
2023-10-01T22:26:57.024Z,59.00
2023-10-01T22:32:02.106Z,59.00
2023-10-01T22:37:11.184Z,58.90
2023-10-01T22:42:31.740Z,59.00
2023-10-01T22:47:38.362Z,59.00
2023-10-01T22:52:46.011Z,59.00
2023-10-01T22:57:51.050Z,59.00
2023-10-01T23:03:01.752Z,59.00
2023-10-01T23:08:08.045Z,59.00
2023-10-01T23:13:12.774Z,59.00
2023-10-01T23:18:19.622Z,59.00
2023-10-01T23:23:29.831Z,59.00
2023-10-01T23:28:34.811Z,59.00
2023-10-01T23:33:38.561Z,58.90
2023-10-01T23:38:57.023Z,58.90
2023-10-01T23:44:03.342Z,58.90
2023-10-01T23:49:12.502Z,58.90
2023-10-01T23:54:20.902Z,58.90
2023-10-01T23:59:31.371Z,58.90
